createdAt,value
2019-02-26T00:01:23.411Z,25.50
2019-02-26T00:04:29.772Z,26.27
2019-02-26T00:07:35.124Z,28.50
2019-02-26T00:10:40.382Z,26.97
2019-02-26T00:13:45.629Z,22.33
2019-02-26T00:16:51.055Z,26.60
2019-02-26T00:19:56.373Z,27.43
2019-02-26T00:23:02.030Z,28.63
2019-02-26T00:26:10.453Z,26.37
2019-02-26T00:29:15.740Z,30.50
2019-02-26T00:32:21.026Z,26.93
2019-02-26T00:35:27.632Z,26.07
2019-02-26T00:38:35.319Z,26.33
2019-02-26T00:41:40.490Z,24.03
2019-02-26T00:44:46.057Z,24.47
2019-02-26T00:47:51.306Z,24.30
2019-02-26T00:50:57.301Z,24.23
2019-02-26T00:54:04.127Z,24.83
2019-02-26T00:57:11.591Z,25.97
2019-02-26T01:00:16.749Z,32.40
2019-02-26T01:03:23.641Z,35.67
2019-02-26T01:06:31.050Z,35.20
2019-02-26T01:09:36.220Z,35.80
2019-02-26T01:12:42.601Z,33.47
2019-02-26T01:15:48.027Z,32.23
2019-02-26T01:18:53.427Z,31.87
2019-02-26T01:21:58.809Z,31.83
2019-02-26T01:25:04.136Z,37.30
2019-02-26T01:28:09.435Z,36.97
2019-02-26T01:31:14.726Z,37.37
2019-02-26T01:34:20.448Z,39.57
2019-02-26T01:37:27.841Z,37.47
2019-02-26T01:40:33.661Z,37.83
2019-02-26T01:43:38.851Z,37.93
2019-02-26T01:46:44.130Z,37.57
2019-02-26T01:49:51.093Z,35.13
2019-02-26T01:52:58.491Z,34.77
2019-02-26T01:56:05.104Z,40.23
2019-02-26T01:59:10.501Z,39.30
2019-02-26T02:02:18.108Z,41.77
2019-02-26T02:05:23.777Z,37.20
2019-02-26T02:08:29.684Z,38.90
2019-02-26T02:11:35.886Z,34.00
2019-02-26T02:14:41.894Z,30.53
2019-02-26T02:17:47.161Z,30.40
2019-02-26T02:20:52.458Z,31.73
2019-02-26T02:23:57.676Z,35.40
2019-02-26T02:27:02.931Z,31.77
2019-02-26T02:30:14.448Z,34.80
2019-02-26T02:33:23.589Z,33.47
2019-02-26T02:36:26.459Z,30.27
2019-02-26T02:39:32.060Z,31.80
2019-02-26T02:42:38.370Z,28.80
2019-02-26T02:45:44.489Z,30.50
2019-02-26T02:48:49.831Z,29.40
2019-02-26T02:51:55.159Z,32.60
2019-02-26T02:55:00.445Z,30.53
2019-02-26T02:58:05.794Z,36.00
2019-02-26T03:01:13.697Z,30.47
2019-02-26T03:04:24.744Z,30.93
2019-02-26T03:07:27.468Z,29.23
2019-02-26T03:10:34.590Z,36.60
2019-02-26T03:13:40.412Z,33.90
2019-02-26T03:16:47.957Z,29.00
2019-02-26T03:19:55.843Z,28.63
2019-02-26T03:22:59.943Z,25.87
2019-02-26T03:26:05.233Z,20.80
2019-02-26T03:29:10.551Z,20.70
2019-02-26T03:32:15.916Z,21.30
2019-02-26T03:35:23.388Z,23.93
2019-02-26T03:38:28.909Z,23.70
2019-02-26T03:41:34.284Z,23.20
2019-02-26T03:44:39.699Z,23.17
2019-02-26T03:47:44.971Z,24.37
2019-02-26T03:50:51.351Z,23.07
2019-02-26T03:53:56.694Z,20.73
2019-02-26T03:57:02.220Z,26.30
2019-02-26T04:00:08.753Z,29.20
2019-02-26T04:03:17.287Z,29.87
2019-02-26T04:06:22.030Z,29.07
2019-02-26T04:09:27.345Z,25.13
2019-02-26T04:12:36.080Z,24.00
2019-02-26T04:15:39.574Z,24.33
2019-02-26T04:18:45.020Z,24.87
2019-02-26T04:22:26.506Z,27.93
2019-02-26T04:25:40.643Z,29.57
2019-02-26T04:29:09.335Z,29.87
2019-02-26T04:32:50.646Z,29.30
2019-02-26T04:36:44.737Z,27.17
2019-02-26T04:40:14.121Z,25.47
2019-02-26T04:43:45.696Z,25.30
2019-02-26T04:47:05.916Z,26.90
2019-02-26T04:50:10.304Z,28.90
2019-02-26T04:53:15.710Z,27.50
2019-02-26T04:56:21.071Z,25.70
2019-02-26T04:59:26.470Z,28.13
2019-02-26T05:02:34.433Z,26.27
2019-02-26T05:05:39.766Z,26.17
2019-02-26T05:08:45.104Z,26.23
2019-02-26T05:11:50.478Z,27.27
2019-02-26T05:14:55.839Z,28.80
2019-02-26T05:18:01.150Z,25.90
2019-02-26T05:21:08.314Z,29.30
2019-02-26T05:24:17.438Z,32.33
2019-02-26T05:27:22.708Z,27.83
2019-02-26T05:30:27.305Z,28.33
2019-02-26T05:33:32.871Z,29.67
2019-02-26T05:36:40.308Z,26.53
2019-02-26T05:39:46.855Z,28.40
2019-02-26T05:42:53.423Z,30.47
2019-02-26T05:46:00.702Z,29.03
2019-02-26T05:49:09.758Z,29.60
2019-02-26T05:52:13.464Z,32.43
2019-02-26T05:55:20.591Z,34.90
2019-02-26T05:58:25.723Z,32.63
2019-02-26T06:01:31.033Z,33.73
2019-02-26T06:04:38.418Z,28.17
2019-02-26T06:07:43.412Z,31.60
2019-02-26T06:10:48.817Z,31.43
2019-02-26T06:13:56.306Z,29.50
2019-02-26T06:17:02.659Z,32.40
2019-02-26T06:20:14.421Z,31.80
2019-02-26T06:23:19.715Z,29.90
2019-02-26T06:26:28.161Z,32.53
2019-02-26T06:29:32.647Z,30.87
2019-02-26T06:32:40.155Z,36.23
2019-02-26T06:35:46.066Z,31.73
2019-02-26T06:38:52.137Z,30.87
2019-02-26T06:41:58.387Z,31.03
2019-02-26T06:45:06.497Z,32.77
2019-02-26T06:48:14.640Z,35.20
2019-02-26T06:51:21.286Z,36.40
2019-02-26T06:54:26.677Z,33.37
2019-02-26T06:57:33.314Z,36.23
2019-02-26T07:00:38.594Z,37.87
2019-02-26T07:03:43.859Z,35.23
2019-02-26T07:06:49.086Z,36.17
2019-02-26T07:09:57.532Z,40.97
2019-02-26T07:13:02.226Z,35.30
2019-02-26T07:16:08.450Z,37.00
2019-02-26T07:19:16.538Z,35.00
2019-02-26T07:22:22.229Z,38.43
2019-02-26T07:25:27.587Z,36.57
2019-02-26T07:28:32.941Z,36.47
2019-02-26T07:31:38.330Z,35.67
2019-02-26T07:34:45.203Z,35.23
2019-02-26T07:37:52.361Z,37.23
2019-02-26T07:40:59.593Z,35.53
2019-02-26T07:44:08.692Z,36.07
2019-02-26T07:47:11.562Z,33.30
2019-02-26T07:50:17.444Z,37.67
2019-02-26T07:53:24.927Z,37.93
2019-02-26T07:56:32.612Z,40.53
2019-02-26T07:59:39.859Z,36.10
2019-02-26T08:02:44.175Z,38.07
2019-02-26T08:05:50.953Z,32.97
2019-02-26T08:08:56.353Z,36.57
2019-02-26T08:12:02.437Z,34.83
2019-02-26T08:15:12.614Z,36.00
2019-02-26T08:18:17.559Z,36.40
2019-02-26T08:21:24.726Z,33.40
2019-02-26T08:24:29.809Z,34.53
2019-02-26T08:27:37.909Z,33.57
2019-02-26T08:30:45.210Z,31.60
2019-02-26T08:33:51.871Z,37.43
2019-02-26T08:36:57.288Z,36.73
2019-02-26T08:40:02.498Z,35.10
2019-02-26T08:43:09.451Z,29.73
2019-02-26T08:46:17.135Z,33.50
2019-02-26T08:49:22.817Z,34.70
2019-02-26T08:52:29.390Z,32.03
2019-02-26T08:55:34.877Z,31.03
2019-02-26T08:58:41.141Z,40.50
2019-02-26T09:01:47.089Z,33.87
2019-02-26T09:04:53.529Z,31.70
2019-02-26T09:07:58.799Z,36.13
2019-02-26T09:11:06.308Z,35.63
2019-02-26T09:14:12.128Z,34.10
2019-02-26T09:17:20.877Z,42.10
2019-02-26T09:20:25.058Z,43.80
2019-02-26T09:23:31.014Z,41.10
2019-02-26T09:26:37.269Z,37.93
2019-02-26T09:29:49.603Z,36.60
2019-02-26T09:32:52.596Z,43.00
2019-02-26T09:35:58.091Z,37.30
2019-02-26T09:39:05.783Z,39.47
2019-02-26T09:42:11.533Z,35.77
2019-02-26T09:45:20.382Z,36.33
2019-02-26T09:48:24.853Z,35.67
2019-02-26T09:51:30.627Z,37.17
2019-02-26T09:54:40.269Z,39.20
2019-02-26T09:57:46.478Z,42.80
2019-02-26T10:00:53.933Z,38.10
2019-02-26T10:04:00.837Z,39.63
2019-02-26T10:07:08.874Z,38.03
2019-02-26T10:10:14.491Z,36.90
2019-02-26T10:13:21.091Z,41.60
2019-02-26T10:16:28.283Z,41.27
2019-02-26T10:19:35.558Z,39.33
2019-02-26T10:22:40.614Z,31.20
2019-02-26T10:25:47.514Z,32.23
2019-02-26T10:28:58.118Z,34.60
2019-02-26T10:31:59.947Z,34.30
2019-02-26T10:35:06.494Z,35.73
2019-02-26T10:38:12.330Z,32.70
2019-02-26T10:41:17.623Z,40.83
2019-02-26T10:44:22.848Z,34.70
2019-02-26T10:47:29.906Z,35.13
2019-02-26T10:50:37.290Z,36.97
2019-02-26T10:53:43.193Z,34.77
2019-02-26T10:56:48.539Z,36.90
2019-02-26T10:59:56.970Z,36.73
2019-02-26T11:03:00.914Z,38.20
2019-02-26T11:06:09.912Z,39.47
2019-02-26T11:09:18.326Z,36.10
2019-02-26T11:12:22.739Z,39.43
2019-02-26T11:15:31.199Z,40.27
2019-02-26T11:18:37.398Z,36.27
2019-02-26T11:21:42.580Z,41.37
2019-02-26T11:24:48.528Z,43.83
2019-02-26T11:27:54.847Z,39.50
2019-02-26T11:31:00.203Z,38.00
2019-02-26T11:34:09.210Z,36.43
2019-02-26T11:37:14.843Z,38.77
2019-02-26T11:40:22.164Z,38.30
2019-02-26T11:43:28.911Z,40.00
2019-02-26T11:46:34.435Z,37.17
2019-02-26T11:49:41.667Z,39.87
2019-02-26T11:52:46.837Z,39.00
2019-02-26T11:55:54.496Z,37.03
2019-02-26T11:58:59.033Z,34.27
2019-02-26T12:02:06.259Z,38.77
2019-02-26T12:05:11.342Z,39.97
2019-02-26T12:08:19.374Z,38.07
2019-02-26T12:11:23.613Z,35.73
2019-02-26T12:14:28.823Z,38.90
2019-02-26T12:17:35.689Z,34.67
2019-02-26T12:20:43.037Z,36.20
2019-02-26T12:23:47.913Z,36.87
2019-02-26T12:26:54.729Z,34.53
2019-02-26T12:30:00.186Z,34.20
2019-02-26T12:33:07.709Z,34.10
2019-02-26T12:36:13.611Z,41.80
2019-02-26T12:39:21.392Z,38.80
2019-02-26T12:42:25.958Z,35.80
2019-02-26T12:45:34.209Z,37.57
2019-02-26T12:48:44.216Z,31.10
2019-02-26T12:51:47.603Z,33.50
2019-02-26T12:54:54.941Z,29.60
2019-02-26T12:58:00.363Z,27.30
2019-02-26T13:01:05.681Z,24.20
2019-02-26T13:04:12.979Z,24.27
2019-02-26T13:07:18.003Z,20.87
2019-02-26T13:10:23.929Z,21.10
2019-02-26T13:13:29.216Z,26.07
2019-02-26T13:16:35.584Z,19.50
2019-02-26T13:19:40.814Z,20.30
2019-02-26T13:22:47.723Z,23.20
2019-02-26T13:25:53.048Z,21.70
2019-02-26T13:29:00.344Z,21.03
2019-02-26T13:32:08.019Z,23.73
2019-02-26T13:35:13.809Z,23.27
2019-02-26T13:38:24.215Z,25.43
2019-02-26T13:41:29.895Z,27.37
2019-02-26T13:44:33.227Z,24.73
2019-02-26T13:47:38.637Z,21.57
2019-02-26T13:50:43.908Z,27.10
2019-02-26T13:53:50.741Z,23.33
2019-02-26T13:56:56.049Z,23.03
2019-02-26T14:00:01.369Z,21.73
2019-02-26T14:03:08.162Z,22.23
2019-02-26T14:06:13.489Z,21.47
2019-02-26T14:09:18.822Z,22.30
2019-02-26T14:12:24.291Z,21.60
2019-02-26T14:15:29.990Z,23.87
2019-02-26T14:18:35.304Z,23.43
2019-02-26T14:21:40.547Z,25.30
2019-02-26T14:24:45.786Z,25.40
2019-02-26T14:27:51.085Z,28.23
2019-02-26T14:30:56.357Z,27.27
2019-02-26T14:34:01.613Z,31.20
2019-02-26T14:37:06.895Z,26.00
2019-02-26T14:40:13.080Z,27.37
2019-02-26T14:43:18.451Z,27.60
2019-02-26T14:46:23.748Z,25.87
2019-02-26T14:49:29.102Z,26.10
2019-02-26T14:52:34.343Z,26.70
2019-02-26T14:55:41.637Z,27.53
2019-02-26T14:58:46.663Z,25.33
2019-02-26T15:01:52.184Z,29.20
2019-02-26T15:04:57.523Z,26.73
2019-02-26T15:08:02.814Z,28.10
2019-02-26T15:11:08.219Z,28.00
2019-02-26T15:14:13.553Z,25.60
2019-02-26T15:17:18.897Z,26.50
2019-02-26T15:20:24.235Z,29.10
2019-02-26T15:23:29.552Z,28.97
2019-02-26T15:26:34.813Z,25.23
2019-02-26T15:29:40.112Z,25.10
2019-02-26T15:32:45.644Z,26.20
2019-02-26T15:35:50.962Z,23.93
2019-02-26T15:38:56.192Z,22.60
2019-02-26T15:42:01.534Z,23.70
2019-02-26T15:45:09.485Z,25.40
2019-02-26T15:48:14.743Z,22.37
2019-02-26T15:51:20.772Z,18.70
2019-02-26T15:54:27.304Z,21.77
2019-02-26T15:57:32.589Z,26.07
2019-02-26T16:00:38.531Z,22.67
2019-02-26T16:03:43.898Z,24.43
2019-02-26T16:06:49.232Z,22.27
2019-02-26T16:09:54.531Z,20.47
2019-02-26T16:13:04.577Z,25.40
2019-02-26T16:16:09.927Z,21.73
2019-02-26T16:19:15.208Z,24.47
2019-02-26T16:22:20.508Z,23.47
2019-02-26T16:25:26.817Z,22.33
2019-02-26T16:28:32.107Z,21.50
2019-02-26T16:31:37.374Z,22.93
2019-02-26T16:34:42.723Z,21.13
2019-02-26T16:37:48.013Z,24.77
2019-02-26T16:40:53.652Z,22.30
2019-02-26T16:44:00.501Z,21.50
2019-02-26T16:47:06.441Z,23.27
2019-02-26T16:50:13.831Z,27.00
2019-02-26T16:53:20.238Z,29.97
2019-02-26T16:56:25.539Z,27.47
2019-02-26T16:59:30.913Z,27.37
2019-02-26T17:02:36.188Z,26.47
2019-02-26T17:05:41.483Z,23.77
2019-02-26T17:08:47.325Z,23.10
2019-02-26T17:11:53.281Z,24.80
2019-02-26T17:14:58.662Z,24.17
2019-02-26T17:18:04.877Z,24.60
2019-02-26T17:21:10.226Z,24.93
2019-02-26T17:24:15.518Z,23.70
2019-02-26T17:27:20.914Z,24.80
2019-02-26T17:30:26.288Z,24.30
2019-02-26T17:33:33.076Z,23.80
2019-02-26T17:36:38.373Z,22.00
2019-02-26T17:39:43.662Z,23.10
2019-02-26T17:42:51.250Z,28.17
2019-02-26T17:45:56.048Z,25.87
2019-02-26T17:49:02.863Z,28.03
2019-02-26T17:52:08.355Z,28.30
2019-02-26T17:55:13.707Z,29.50
2019-02-26T17:58:19.158Z,27.00
2019-02-26T18:01:24.559Z,33.27
2019-02-26T18:04:29.897Z,27.60
2019-02-26T18:07:38.389Z,31.60
2019-02-26T18:10:42.294Z,26.33
2019-02-26T18:13:47.673Z,24.40
2019-02-26T18:16:52.961Z,26.53
2019-02-26T18:19:58.253Z,23.77
2019-02-26T18:23:04.766Z,24.57
2019-02-26T18:26:12.807Z,21.13
2019-02-26T18:29:18.178Z,22.73
2019-02-26T18:32:23.455Z,24.83
2019-02-26T18:35:28.735Z,21.23
2019-02-26T18:38:34.118Z,20.63
2019-02-26T18:41:39.517Z,22.00
2019-02-26T18:44:44.944Z,22.53
2019-02-26T18:47:50.359Z,23.80
2019-02-26T18:50:55.638Z,19.80
2019-02-26T18:54:00.891Z,23.57
2019-02-26T18:57:06.154Z,23.20
2019-02-26T19:00:13.932Z,22.87
2019-02-26T19:03:20.790Z,22.13
2019-02-26T19:06:26.988Z,24.60
2019-02-26T19:09:33.845Z,19.53
2019-02-26T19:12:40.689Z,21.97
2019-02-26T19:15:47.919Z,17.93
2019-02-26T19:18:52.930Z,20.67
2019-02-26T19:21:58.991Z,20.57
2019-02-26T19:25:06.777Z,22.60
2019-02-26T19:28:11.707Z,22.07
2019-02-26T19:31:17.058Z,22.27
2019-02-26T19:34:22.292Z,22.67
2019-02-26T19:37:27.597Z,29.97
2019-02-26T19:40:38.796Z,29.80
2019-02-26T19:43:42.471Z,32.13
2019-02-26T19:46:49.658Z,26.63
2019-02-26T19:49:55.899Z,26.17
2019-02-26T19:53:02.469Z,28.27
2019-02-26T19:56:08.225Z,29.87
2019-02-26T19:59:14.253Z,26.53
2019-02-26T20:02:20.787Z,21.57
2019-02-26T20:05:26.077Z,20.90
2019-02-26T20:08:31.412Z,19.20
2019-02-26T20:11:36.754Z,19.30
2019-02-26T20:14:42.056Z,16.53
2019-02-26T20:17:49.123Z,19.40
2019-02-26T20:20:54.523Z,18.63
2019-02-26T20:23:59.868Z,21.13
2019-02-26T20:27:05.266Z,22.40
2019-02-26T20:30:12.532Z,20.50
2019-02-26T20:33:19.452Z,19.73
2019-02-26T20:36:24.703Z,21.73
2019-02-26T20:39:30.113Z,23.57
2019-02-26T20:42:35.376Z,19.77
2019-02-26T20:45:40.720Z,18.83
2019-02-26T20:48:46.150Z,22.33
2019-02-26T20:51:51.732Z,27.20
2019-02-26T20:54:57.103Z,22.50
2019-02-26T20:58:02.427Z,20.47
2019-02-26T21:01:07.760Z,18.77
2019-02-26T21:04:13.062Z,20.70
2019-02-26T21:07:21.797Z,21.80
2019-02-26T21:10:26.441Z,20.83
2019-02-26T21:13:34.595Z,23.10
2019-02-26T21:16:38.812Z,26.03
2019-02-26T21:19:44.233Z,32.10
2019-02-26T21:22:54.607Z,23.47
2019-02-26T21:25:57.538Z,26.00
2019-02-26T21:29:05.555Z,24.27
2019-02-26T21:32:09.810Z,28.47
2019-02-26T21:35:15.100Z,24.60
2019-02-26T21:38:20.356Z,23.83
2019-02-26T21:41:25.627Z,24.50
2019-02-26T21:44:30.925Z,26.57
2019-02-26T21:47:36.196Z,27.87
2019-02-26T21:50:41.477Z,21.87
2019-02-26T21:53:49.192Z,24.03
2019-02-26T21:56:53.784Z,21.67
2019-02-26T21:59:59.125Z,23.67
2019-02-26T22:03:04.460Z,24.40
2019-02-26T22:06:11.496Z,27.27
2019-02-26T22:09:16.987Z,20.40
2019-02-26T22:12:24.743Z,25.73
2019-02-26T22:15:30.102Z,24.37
2019-02-26T22:18:35.386Z,19.30
2019-02-26T22:21:51.837Z,19.80
2019-02-26T22:24:55.509Z,21.60
2019-02-26T22:28:01.811Z,17.20
2019-02-26T22:31:07.051Z,20.80
2019-02-26T22:34:16.765Z,21.23
2019-02-26T22:37:21.502Z,21.80
2019-02-26T22:40:29.221Z,26.60
2019-02-26T22:43:33.776Z,25.10
2019-02-26T22:46:39.181Z,23.30
2019-02-26T22:49:45.444Z,22.10
2019-02-26T22:52:50.750Z,21.70
2019-02-26T22:55:56.014Z,23.50
2019-02-26T22:59:01.375Z,30.20
2019-02-26T23:02:09.893Z,28.03
2019-02-26T23:05:16.306Z,26.60
2019-02-26T23:08:21.702Z,26.33
2019-02-26T23:11:31.688Z,28.10
2019-02-26T23:14:35.912Z,33.07
2019-02-26T23:17:42.839Z,25.40
2019-02-26T23:20:48.232Z,28.30
2019-02-26T23:23:54.814Z,30.23
2019-02-26T23:27:01.088Z,27.50
2019-02-26T23:30:08.506Z,26.57
2019-02-26T23:33:15.772Z,31.90
2019-02-26T23:36:21.155Z,29.20
2019-02-26T23:39:28.010Z,34.70
2019-02-26T23:42:38.788Z,29.70
2019-02-26T23:45:41.635Z,26.73
2019-02-26T23:48:49.991Z,28.10
2019-02-26T23:51:55.297Z,32.03
2019-02-26T23:55:00.531Z,28.43
2019-02-26T23:58:05.821Z,33.93
